Time;durP1;ratioP1;P1;durP2;ratioP2;P2;SDS_P1;SDS_P2;PMS_P1;PMS_P2;Temp;Humidity;BMP_temperature;BMP_pressure;BME280_temperature;BME280_humidity;BME280_pressure;Samples;Min_cycle;Max_cycle;Signal;HPM_P1;HPM_P2
2024/01/09 00:01:43;;;;;;;8.68;5.07;;;-1.90;99.90;;;;;;4939601;29;20066;-76
2024/01/09 00:04:09;;;;;;;9.38;4.95;;;-1.90;99.90;;;;;;4946908;28;20096;-76
2024/01/09 00:06:35;;;;;;;11.70;5.47;;;-1.90;99.90;;;;;;4946672;28;20032;-76
2024/01/09 00:09:02;;;;;;;11.32;4.93;;;-1.90;99.90;;;;;;4946059;28;20030;-76
2024/01/09 00:11:28;;;;;;;10.93;4.95;;;-1.90;99.90;;;;;;4948784;28;20031;-76
2024/01/09 00:13:53;;;;;;;9.63;5.20;;;-1.90;99.90;;;;;;4943375;28;20016;-76
2024/01/09 00:16:20;;;;;;;9.73;5.13;;;-1.90;99.90;;;;;;4943724;28;20029;-76
2024/01/09 00:18:45;;;;;;;11.45;5.40;;;-1.90;99.90;;;;;;4941703;28;20052;-76
2024/01/09 00:21:11;;;;;;;9.30;5.13;;;-1.90;99.90;;;;;;4943245;28;20023;-76
2024/01/09 00:23:36;;;;;;;7.95;4.53;;;-1.90;99.90;;;;;;4933089;28;20484;-76
2024/01/09 00:26:02;;;;;;;7.82;4.50;;;-1.90;99.90;;;;;;4947928;28;20515;-76
2024/01/09 00:28:28;;;;;;;11.27;5.53;;;-1.90;99.90;;;;;;4948943;28;20074;-76
2024/01/09 00:30:54;;;;;;;9.52;4.95;;;-1.90;99.90;;;;;;4948099;28;20016;-76
2024/01/09 00:33:19;;;;;;;8.48;4.63;;;-2.00;99.90;;;;;;4949013;28;20541;-76
2024/01/09 00:35:45;;;;;;;10.02;4.40;;;-2.00;99.90;;;;;;4948437;28;20035;-76
2024/01/09 00:38:10;;;;;;;6.63;4.50;;;-2.00;99.90;;;;;;4945057;28;20035;-76
2024/01/09 00:40:36;;;;;;;9.02;4.82;;;-2.00;99.90;;;;;;4948419;28;20392;-76
2024/01/09 00:43:02;;;;;;;10.32;5.00;;;-2.00;99.90;;;;;;4949534;28;20043;-76
2024/01/09 00:45:27;;;;;;;8.45;4.93;;;-2.00;99.90;;;;;;4952073;28;20467;-76
2024/01/09 00:47:53;;;;;;;10.48;5.00;;;-2.00;99.90;;;;;;4951015;28;20016;-76
2024/01/09 00:50:18;;;;;;;8.98;4.70;;;-2.00;99.90;;;;;;4934517;28;20103;-76
2024/01/09 00:52:44;;;;;;;8.52;5.00;;;-2.10;99.90;;;;;;4958943;28;20031;-76
2024/01/09 00:55:10;;;;;;;11.13;4.80;;;-2.10;99.90;;;;;;4986200;28;20034;-76
2024/01/09 00:57:36;;;;;;;9.38;5.15;;;-2.10;99.90;;;;;;4945064;28;20027;-76
2024/01/09 01:00:02;;;;;;;10.65;4.68;;;-2.10;99.90;;;;;;4951033;28;20064;-76
2024/01/09 01:02:27;;;;;;;9.82;5.20;;;-2.10;99.90;;;;;;4953638;28;20034;-76
2024/01/09 01:04:53;;;;;;;8.43;4.65;;;-2.10;99.90;;;;;;4941014;28;20022;-76
2024/01/09 01:07:19;;;;;;;8.45;4.90;;;-2.10;99.90;;;;;;4951267;28;20540;-76
2024/01/09 01:09:44;;;;;;;8.50;4.82;;;-2.10;99.90;;;;;;4941817;28;20011;-76
2024/01/09 01:12:10;;;;;;;13.98;5.03;;;-2.10;99.90;;;;;;4936823;28;20035;-76
2024/01/09 01:14:35;;;;;;;10.65;5.32;;;-2.10;99.90;;;;;;4942845;28;20384;-76
2024/01/09 01:17:01;;;;;;;11.57;5.47;;;-2.10;99.90;;;;;;4944266;28;20263;-76
2024/01/09 01:19:27;;;;;;;9.10;4.70;;;-2.10;99.90;;;;;;4951450;29;20514;-76
2024/01/09 01:21:52;;;;;;;8.80;4.75;;;-2.10;99.90;;;;;;5017379;28;20019;-76
2024/01/09 01:24:18;;;;;;;9.35;4.60;;;-2.20;99.90;;;;;;4951073;28;20023;-76
2024/01/09 01:26:44;;;;;;;10.82;5.25;;;-2.20;99.90;;;;;;4950741;28;20485;-76
2024/01/09 01:29:09;;;;;;;9.75;4.90;;;-2.20;99.90;;;;;;4950943;28;20020;-76
2024/01/09 01:31:35;;;;;;;9.68;4.90;;;-2.20;99.90;;;;;;4955954;28;20035;-76
2024/01/09 01:34:01;;;;;;;10.40;4.88;;;-2.20;99.90;;;;;;5032458;28;20031;-76
2024/01/09 01:36:26;;;;;;;8.30;4.75;;;-2.20;99.90;;;;;;4952362;28;20050;-76
2024/01/09 01:38:52;;;;;;;8.52;5.03;;;-2.20;99.90;;;;;;4938703;28;20465;-76
2024/01/09 01:41:17;;;;;;;10.32;5.45;;;-2.20;99.90;;;;;;4949673;29;20045;-76
2024/01/09 01:43:43;;;;;;;9.88;4.85;;;-2.20;99.90;;;;;;4940592;28;20102;-76
2024/01/09 01:46:09;;;;;;;8.48;4.53;;;-2.20;99.90;;;;;;5034260;28;20035;-76
2024/01/09 01:48:35;;;;;;;8.48;4.78;;;-2.20;99.90;;;;;;5007877;28;20030;-76
2024/01/09 01:51:02;;;;;;;8.60;4.75;;;-2.30;99.90;;;;;;4951092;28;20354;-76
2024/01/09 01:53:31;;;;;;;8.98;5.07;;;-2.30;99.90;;;;;;4950749;28;20032;-76
2024/01/09 01:55:57;;;;;;;7.28;4.53;;;-2.30;99.90;;;;;;4937457;28;20089;-76
2024/01/09 01:58:24;;;;;;;9.43;4.90;;;-2.30;99.90;;;;;;4949710;29;20020;-76
2024/01/09 02:00:50;;;;;;;8.15;4.47;;;-2.30;99.90;;;;;;4950580;28;20053;-76
2024/01/09 02:03:16;;;;;;;10.20;5.57;;;-2.30;99.90;;;;;;4950357;28;20074;-76
2024/01/09 02:05:42;;;;;;;8.45;4.60;;;-2.30;99.90;;;;;;4950567;28;20059;-76
2024/01/09 02:08:09;;;;;;;8.73;4.88;;;-2.30;99.90;;;;;;4949927;28;20031;-77
2024/01/09 02:10:34;;;;;;;8.00;4.15;;;-2.30;99.90;;;;;;4951010;28;20081;-76
2024/01/09 02:13:00;;;;;;;11.15;5.00;;;-2.30;99.90;;;;;;4941572;28;20424;-76
2024/01/09 02:15:25;;;;;;;8.75;4.88;;;-2.40;99.90;;;;;;4951007;28;20067;-76
2024/01/09 02:17:51;;;;;;;6.95;4.18;;;-2.40;99.90;;;;;;4949734;28;20151;-76
2024/01/09 02:20:22;;;;;;;9.65;4.70;;;-2.40;99.90;;;;;;4950410;28;20089;-76
2024/01/09 02:22:48;;;;;;;8.95;4.47;;;-2.40;99.90;;;;;;4948830;28;20106;-76
2024/01/09 02:25:13;;;;;;;9.20;4.68;;;-2.40;99.90;;;;;;4950238;28;20110;-76
2024/01/09 02:28:03;;;;;;;9.10;4.68;;;-2.40;99.90;;;;;;5015576;28;20024;-76
2024/01/09 02:30:30;;;;;;;6.95;4.28;;;-2.40;99.90;;;;;;4949059;29;20085;-76
2024/01/09 02:32:56;;;;;;;9.38;5.13;;;-2.40;99.90;;;;;;4947033;28;20030;-76
2024/01/09 02:35:21;;;;;;;8.52;4.78;;;-2.50;99.90;;;;;;4949465;28;20029;-76
2024/01/09 02:37:47;;;;;;;10.75;4.65;;;-2.50;99.90;;;;;;4945312;28;20505;-76
2024/01/09 02:40:12;;;;;;;9.98;4.90;;;-2.50;99.90;;;;;;4950044;28;20031;-77
2024/01/09 02:42:38;;;;;;;8.63;4.68;;;-2.50;99.90;;;;;;4946884;28;20392;-76
2024/01/09 02:45:04;;;;;;;9.52;4.55;;;-2.50;99.90;;;;;;4943726;28;20415;-76
2024/01/09 02:47:29;;;;;;;10.13;4.95;;;-2.50;99.90;;;;;;4949254;28;20070;-76
2024/01/09 02:49:55;;;;;;;9.27;4.53;;;-2.50;99.90;;;;;;4946253;28;20137;-76
2024/01/09 02:52:21;;;;;;;8.93;4.53;;;-2.50;99.90;;;;;;4946589;28;20054;-76
2024/01/09 02:54:46;;;;;;;8.18;4.65;;;-2.50;99.90;;;;;;4949190;28;20027;-76
2024/01/09 02:57:12;;;;;;;9.57;4.43;;;-2.50;99.90;;;;;;4946004;28;20379;-76
2024/01/09 02:59:38;;;;;;;8.77;4.55;;;-2.50;99.90;;;;;;4936304;28;20030;-76
2024/01/09 03:02:04;;;;;;;9.02;4.40;;;-2.60;99.90;;;;;;4949808;28;20015;-76
2024/01/09 03:04:30;;;;;;;8.70;4.57;;;-2.60;99.90;;;;;;4949539;28;20475;-76
2024/01/09 03:06:56;;;;;;;7.95;4.53;;;-2.60;99.90;;;;;;4949371;28;20039;-76
2024/01/09 03:09:22;;;;;;;8.07;4.82;;;-2.60;99.90;;;;;;4947557;29;20488;-76
2024/01/09 03:11:47;;;;;;;9.55;4.78;;;-2.60;99.90;;;;;;4949446;28;20031;-76
2024/01/09 03:14:14;;;;;;;10.73;5.03;;;-2.60;99.90;;;;;;4942329;28;20024;-76
2024/01/09 03:16:40;;;;;;;9.65;4.70;;;-2.60;99.90;;;;;;4946666;28;20027;-76
2024/01/09 03:19:05;;;;;;;11.10;5.07;;;-2.60;99.90;;;;;;4947924;28;20455;-77
2024/01/09 03:21:31;;;;;;;8.85;5.00;;;-2.60;99.90;;;;;;4948737;28;20038;-77
2024/01/09 03:23:56;;;;;;;10.98;5.07;;;-2.60;99.90;;;;;;4948947;28;20023;-77
2024/01/09 03:26:22;;;;;;;10.68;5.20;;;-2.60;99.90;;;;;;4948625;28;20062;-76
2024/01/09 03:28:48;;;;;;;6.38;4.10;;;-2.60;99.90;;;;;;4945693;28;20024;-76
2024/01/09 03:31:23;;;;;;;10.90;5.00;;;-2.60;99.90;;;;;;4948560;28;20038;-77
2024/01/09 03:33:49;;;;;;;8.43;4.55;;;-2.60;99.90;;;;;;4948904;28;20037;-77
2024/01/09 03:36:15;;;;;;;10.48;4.70;;;-2.60;99.90;;;;;;4948743;28;20707;-76
2024/01/09 03:38:41;;;;;;;9.00;4.60;;;-2.60;99.90;;;;;;4949878;28;20023;-76
2024/01/09 03:41:07;;;;;;;11.73;4.60;;;-2.70;99.90;;;;;;4948924;28;20034;-76
2024/01/09 03:43:32;;;;;;;8.68;4.43;;;-2.70;99.90;;;;;;4946338;28;20016;-77
2024/01/09 03:45:58;;;;;;;13.65;4.93;;;-2.70;99.90;;;;;;4945087;28;20063;-76
2024/01/09 03:48:23;;;;;;;9.45;4.45;;;-2.70;99.90;;;;;;4937621;28;20027;-77
2024/01/09 03:50:49;;;;;;;8.10;4.38;;;-2.70;99.90;;;;;;4948775;28;20034;-77
2024/01/09 03:53:15;;;;;;;8.07;4.50;;;-2.70;99.90;;;;;;4938340;28;20031;-77
2024/01/09 03:55:41;;;;;;;10.77;5.05;;;-2.70;99.90;;;;;;4949492;28;20046;-77
2024/01/09 03:58:07;;;;;;;10.05;5.03;;;-2.70;99.90;;;;;;4938336;28;20019;-77
2024/01/09 04:00:33;;;;;;;10.52;5.18;;;-2.70;99.90;;;;;;4949036;28;20042;-76
2024/01/09 04:03:00;;;;;;;9.82;4.72;;;-2.70;99.90;;;;;;4936908;28;20024;-77
2024/01/09 04:05:25;;;;;;;9.07;4.88;;;-2.70;99.90;;;;;;4941611;28;20395;-76
2024/01/09 04:07:51;;;;;;;10.55;5.13;;;-2.70;99.90;;;;;;4948654;28;20023;-77
2024/01/09 04:10:16;;;;;;;9.60;4.78;;;-2.70;99.90;;;;;;4943228;28;20023;-77
2024/01/09 04:12:42;;;;;;;11.65;4.75;;;-2.70;99.90;;;;;;4945270;28;20032;-77
2024/01/09 04:15:08;;;;;;;10.82;5.05;;;-2.70;99.90;;;;;;4938630;28;20447;-77
2024/01/09 04:17:34;;;;;;;9.48;4.90;;;-2.70;99.90;;;;;;4941015;28;20079;-77
2024/01/09 04:20:03;;;;;;;9.80;5.35;;;-2.70;99.90;;;;;;4948380;28;20051;-77
2024/01/09 04:22:28;;;;;;;8.68;4.97;;;-2.70;99.90;;;;;;4938668;28;20077;-77
2024/01/09 04:24:54;;;;;;;11.65;4.85;;;-2.70;99.90;;;;;;4948995;28;20028;-77
2024/01/09 04:27:20;;;;;;;10.68;5.47;;;-2.70;99.90;;;;;;4947567;28;20462;-77
2024/01/09 04:29:45;;;;;;;10.55;5.18;;;-2.80;99.90;;;;;;4948804;28;20073;-76
2024/01/09 04:32:11;;;;;;;8.68;4.70;;;-2.70;99.90;;;;;;4946829;28;20547;-77
2024/01/09 04:34:37;;;;;;;10.88;5.20;;;-2.80;99.90;;;;;;5025836;28;20579;-77
2024/01/09 04:37:02;;;;;;;10.55;5.07;;;-2.80;99.90;;;;;;4943993;28;20320;-77
2024/01/09 04:39:28;;;;;;;9.10;4.60;;;-2.80;99.90;;;;;;4947656;28;20031;-77
2024/01/09 04:41:54;;;;;;;8.80;4.75;;;-2.80;99.90;;;;;;4945165;28;20028;-77
2024/01/09 04:44:19;;;;;;;9.40;5.13;;;-2.80;99.90;;;;;;4939666;28;20452;-77
2024/01/09 04:46:45;;;;;;;9.52;4.85;;;-2.80;99.90;;;;;;4947518;28;20138;-77
2024/01/09 04:49:10;;;;;;;9.55;4.80;;;-2.80;99.90;;;;;;4948249;28;20027;-76
2024/01/09 04:51:36;;;;;;;8.95;4.65;;;-2.80;99.90;;;;;;4948372;28;20026;-77
2024/01/09 04:54:01;;;;;;;9.32;5.00;;;-2.80;99.90;;;;;;4948961;28;20059;-77
2024/01/09 04:56:27;;;;;;;8.68;4.80;;;-2.80;99.90;;;;;;4935729;28;20024;-77
2024/01/09 04:58:53;;;;;;;9.82;4.80;;;-2.80;99.90;;;;;;4947964;28;20055;-77
2024/01/09 05:01:22;;;;;;;9.93;5.10;;;-2.90;99.90;;;;;;4947323;28;20110;-77
2024/01/09 05:03:49;;;;;;;11.25;5.53;;;-2.90;99.90;;;;;;4941717;28;20054;-77
2024/01/09 05:06:16;;;;;;;9.75;5.00;;;-2.90;99.90;;;;;;4933547;28;20028;-77
2024/01/09 05:08:42;;;;;;;12.15;4.90;;;-2.90;99.90;;;;;;4943456;28;20032;-77
2024/01/09 05:11:07;;;;;;;10.32;4.80;;;-2.90;99.90;;;;;;4942450;28;20036;-77
2024/01/09 05:13:33;;;;;;;10.40;5.28;;;-2.90;99.90;;;;;;4939864;28;20074;-76
2024/01/09 05:15:58;;;;;;;9.00;4.80;;;-3.00;99.90;;;;;;4948186;28;20100;-77
2024/01/09 05:18:24;;;;;;;10.43;5.00;;;-3.00;99.90;;;;;;4947384;28;20043;-77
2024/01/09 05:20:50;;;;;;;11.40;5.10;;;-3.00;99.90;;;;;;4948034;28;20046;-77
2024/01/09 05:23:15;;;;;;;8.70;4.50;;;-3.00;99.90;;;;;;4945938;28;20020;-77
2024/01/09 05:25:41;;;;;;;11.05;5.15;;;-3.00;99.90;;;;;;4946684;28;20055;-77
2024/01/09 05:28:07;;;;;;;9.80;4.88;;;-3.00;99.90;;;;;;4946653;28;20031;-77
2024/01/09 05:30:32;;;;;;;9.07;5.10;;;-3.00;99.90;;;;;;4947556;28;20024;-76
2024/01/09 05:32:58;;;;;;;8.95;4.10;;;-3.00;99.90;;;;;;4950306;29;20031;-76
2024/01/09 05:35:23;;;;;;;9.38;4.90;;;-3.00;99.90;;;;;;4951056;28;20019;-76
2024/01/09 05:37:49;;;;;;;7.55;4.57;;;-3.00;99.90;;;;;;4951224;28;20059;-76
2024/01/09 05:40:17;;;;;;;11.23;5.18;;;-3.10;99.90;;;;;;4947469;28;20039;-76
2024/01/09 05:42:43;;;;;;;8.75;4.60;;;-3.10;99.90;;;;;;4934656;28;20024;-76
2024/01/09 05:45:09;;;;;;;8.90;4.55;;;-3.00;99.90;;;;;;4951041;28;20019;-76
2024/01/09 05:47:35;;;;;;;8.82;4.82;;;-3.10;99.90;;;;;;4949784;28;20031;-76
2024/01/09 05:50:01;;;;;;;11.60;5.65;;;-3.00;99.90;;;;;;4934119;29;20027;-76
2024/01/09 05:52:27;;;;;;;11.73;5.40;;;-3.00;99.90;;;;;;4944813;28;20069;-76
2024/01/09 05:54:52;;;;;;;9.07;4.38;;;-3.10;99.90;;;;;;4948638;28;20403;-76
2024/01/09 05:57:18;;;;;;;8.57;4.32;;;-3.10;99.90;;;;;;4973026;28;20023;-76
2024/01/09 05:59:43;;;;;;;10.45;5.32;;;-3.10;99.90;;;;;;4951970;29;20413;-76
2024/01/09 06:02:09;;;;;;;9.15;5.05;;;-3.10;99.90;;;;;;4950821;28;20020;-76
2024/01/09 06:04:34;;;;;;;10.10;5.07;;;-3.10;99.90;;;;;;5000603;28;20382;-76
2024/01/09 06:07:01;;;;;;;10.07;5.00;;;-3.10;99.90;;;;;;4955266;28;20499;-75
2024/01/09 06:09:26;;;;;;;9.73;5.22;;;-3.10;99.90;;;;;;4952012;29;20024;-75
2024/01/09 06:11:52;;;;;;;10.73;5.30;;;-3.10;99.90;;;;;;4960327;28;20507;-75
2024/01/09 06:14:18;;;;;;;11.00;5.22;;;-3.10;99.90;;;;;;4939743;28;20035;-75
2024/01/09 06:16:43;;;;;;;10.45;5.00;;;-3.10;99.90;;;;;;4949140;28;20082;-76
2024/01/09 06:19:09;;;;;;;11.35;5.68;;;-3.10;99.90;;;;;;5016731;28;20023;-76
2024/01/09 06:21:35;;;;;;;10.77;5.00;;;-3.10;99.90;;;;;;4943393;29;20046;-76
2024/01/09 06:24:00;;;;;;;11.13;5.50;;;-3.10;99.90;;;;;;4950205;28;20149;-76
2024/01/09 06:26:26;;;;;;;11.88;4.95;;;-3.10;99.90;;;;;;4949385;29;20106;-76
2024/01/09 06:28:51;;;;;;;11.52;5.25;;;-3.10;99.90;;;;;;4949555;28;20042;-76
2024/01/09 06:31:17;;;;;;;10.80;5.43;;;-3.10;99.90;;;;;;4945823;28;20133;-76
2024/01/09 06:33:43;;;;;;;10.93;5.35;;;-3.10;99.90;;;;;;4946939;28;20476;-76
2024/01/09 06:36:08;;;;;;;8.43;5.15;;;-3.10;99.90;;;;;;4947174;28;20033;-76
2024/01/09 06:38:34;;;;;;;12.18;5.50;;;-3.10;99.90;;;;;;4949846;29;20076;-75
2024/01/09 06:40:59;;;;;;;11.00;4.70;;;-3.20;99.90;;;;;;4940201;28;20090;-76
2024/01/09 06:43:25;;;;;;;12.40;5.03;;;-3.20;99.90;;;;;;4949497;28;20106;-76
2024/01/09 06:45:51;;;;;;;9.00;4.70;;;-3.20;99.90;;;;;;4950931;28;20035;-76
2024/01/09 06:48:16;;;;;;;9.02;4.90;;;-3.20;99.90;;;;;;4947796;28;20019;-76
2024/01/09 06:50:42;;;;;;;7.72;4.47;;;-3.20;99.90;;;;;;4948723;28;20035;-76
2024/01/09 06:53:07;;;;;;;8.80;4.88;;;-3.30;99.90;;;;;;4948937;28;20394;-76
2024/01/09 06:55:33;;;;;;;7.78;4.70;;;-3.30;99.90;;;;;;4941457;28;20023;-76
2024/01/09 06:57:58;;;;;;;8.73;4.70;;;-3.30;99.90;;;;;;4946082;28;20085;-76
2024/01/09 07:00:24;;;;;;;9.25;5.00;;;-3.20;99.90;;;;;;4949675;28;20063;-76
2024/01/09 07:02:50;;;;;;;8.85;4.57;;;-3.30;99.90;;;;;;4948029;28;20031;-76
2024/01/09 07:05:15;;;;;;;11.13;5.07;;;-3.30;99.90;;;;;;4948197;29;20019;-76
2024/01/09 07:07:41;;;;;;;9.93;4.90;;;-3.20;99.90;;;;;;4950651;28;20039;-76
2024/01/09 07:10:08;;;;;;;9.60;5.00;;;-3.30;99.90;;;;;;4941325;29;20027;-76
2024/01/09 07:12:34;;;;;;;10.73;5.15;;;-3.30;99.90;;;;;;4949388;29;20019;-76
2024/01/09 07:15:00;;;;;;;11.88;5.45;;;-3.30;99.90;;;;;;4948556;28;20373;-76
2024/01/09 07:17:26;;;;;;;9.18;4.38;;;-3.30;99.90;;;;;;4947766;28;20109;-76
2024/01/09 07:19:51;;;;;;;11.90;5.53;;;-3.30;99.90;;;;;;4948525;28;20035;-76
2024/01/09 07:22:17;;;;;;;8.35;4.72;;;-3.30;99.90;;;;;;4942403;28;20107;-76
2024/01/09 07:24:42;;;;;;;10.30;4.63;;;-3.30;99.90;;;;;;4949494;28;20333;-76
2024/01/09 07:27:08;;;;;;;12.38;4.82;;;-3.30;99.90;;;;;;4946743;28;20047;-76
2024/01/09 07:29:33;;;;;;;8.20;4.88;;;-3.30;99.90;;;;;;4939789;28;20397;-76
2024/01/09 07:31:59;;;;;;;10.15;4.90;;;-3.40;99.90;;;;;;4947091;28;20020;-76
2024/01/09 07:34:24;;;;;;;8.98;5.10;;;-3.40;99.90;;;;;;4942803;28;20040;-76
2024/01/09 07:36:50;;;;;;;9.70;5.10;;;-3.40;99.90;;;;;;4937597;28;20027;-76
2024/01/09 07:39:16;;;;;;;12.90;5.72;;;-3.40;99.90;;;;;;4947554;28;20565;-76
2024/01/09 07:41:41;;;;;;;10.40;4.93;;;-3.40;99.90;;;;;;4941615;28;20023;-76
2024/01/09 07:44:07;;;;;;;11.48;5.60;;;-3.40;99.90;;;;;;4943681;28;20068;-76
2024/01/09 07:46:33;;;;;;;8.50;4.70;;;-3.40;99.90;;;;;;4947286;28;20077;-76
2024/01/09 07:48:58;;;;;;;12.52;5.30;;;-3.40;99.90;;;;;;4948044;28;20490;-76
2024/01/09 07:51:24;;;;;;;10.50;5.65;;;-3.40;99.90;;;;;;4943076;28;20054;-76
2024/01/09 07:53:49;;;;;;;10.60;5.35;;;-3.40;99.90;;;;;;5005147;28;20035;-76
2024/01/09 07:56:17;;;;;;;9.40;4.97;;;-3.50;99.90;;;;;;5011665;28;20023;-76
2024/01/09 07:58:43;;;;;;;11.32;5.13;;;-3.40;99.90;;;;;;4993661;28;20106;-76
2024/01/09 08:01:11;;;;;;;12.27;5.53;;;-3.50;99.90;;;;;;4948722;28;20050;-76
2024/01/09 08:03:37;;;;;;;10.40;5.45;;;-3.50;99.90;;;;;;4948025;28;20020;-76
2024/01/09 08:06:02;;;;;;;9.95;4.78;;;-3.40;99.90;;;;;;4936209;28;20480;-76
2024/01/09 08:08:28;;;;;;;10.48;5.35;;;-3.50;99.90;;;;;;4940452;29;20076;-76
2024/01/09 08:10:53;;;;;;;11.23;5.32;;;-3.50;99.90;;;;;;4937031;28;20476;-77
2024/01/09 08:13:19;;;;;;;8.88;4.72;;;-3.50;99.90;;;;;;4946612;28;20053;-76
2024/01/09 08:15:45;;;;;;;10.05;5.10;;;-3.50;99.90;;;;;;4945600;28;20361;-76
2024/01/09 08:18:10;;;;;;;11.07;5.13;;;-3.50;99.90;;;;;;4947925;28;20391;-76
2024/01/09 08:20:36;;;;;;;10.10;5.35;;;-3.50;99.90;;;;;;4946971;28;20160;-76
2024/01/09 08:23:02;;;;;;;10.18;4.65;;;-3.50;99.90;;;;;;4941524;28;20011;-76
2024/01/09 08:25:28;;;;;;;14.57;7.15;;;-3.50;99.90;;;;;;4942810;28;20058;-76
2024/01/09 08:27:54;;;;;;;10.82;5.63;;;-3.50;99.90;;;;;;4934282;28;20028;-76
2024/01/09 08:30:19;;;;;;;9.30;5.15;;;-3.50;99.90;;;;;;4947194;28;20380;-76
2024/01/09 08:32:45;;;;;;;13.02;5.82;;;-3.50;99.90;;;;;;4947900;28;20436;-76
2024/01/09 08:35:11;;;;;;;12.98;6.53;;;-3.50;99.90;;;;;;4947719;28;20031;-76
2024/01/09 08:37:36;;;;;;;11.30;6.03;;;-3.50;99.90;;;;;;4948214;29;20499;-76
2024/01/09 08:40:02;;;;;;;13.52;5.93;;;-3.50;99.90;;;;;;4946807;28;20502;-76
2024/01/09 08:42:28;;;;;;;10.77;5.80;;;-3.50;99.90;;;;;;4945865;28;20035;-76
2024/01/09 08:44:53;;;;;;;8.98;5.15;;;-3.50;99.90;;;;;;4947662;28;20480;-76
2024/01/09 08:47:19;;;;;;;11.80;5.90;;;-3.50;99.90;;;;;;4947329;28;20048;-76
2024/01/09 08:49:44;;;;;;;10.95;5.18;;;-3.50;99.90;;;;;;4947365;28;20028;-76
2024/01/09 08:52:10;;;;;;;11.18;5.60;;;-3.50;99.90;;;;;;4947712;28;20089;-76
2024/01/09 08:54:36;;;;;;;11.07;5.38;;;-3.40;99.90;;;;;;4959804;28;20027;-76
2024/01/09 08:57:01;;;;;;;10.90;4.93;;;-3.40;99.90;;;;;;4956288;28;20033;-76
2024/01/09 08:59:27;;;;;;;10.15;5.63;;;-3.30;99.90;;;;;;4947528;28;20025;-76
2024/01/09 09:01:52;;;;;;;10.50;5.15;;;-3.30;99.90;;;;;;4946044;28;20153;-76
2024/01/09 09:04:18;;;;;;;11.75;5.55;;;-3.30;99.90;;;;;;4948132;28;20027;-76
2024/01/09 09:06:44;;;;;;;11.00;5.22;;;-3.30;99.90;;;;;;4951086;28;20422;-76
2024/01/09 09:09:09;;;;;;;10.27;5.22;;;-3.20;99.90;;;;;;4950740;28;20478;-76
2024/01/09 09:11:35;;;;;;;10.48;4.85;;;-3.20;99.90;;;;;;4951086;28;20036;-76
2024/01/09 09:14:01;;;;;;;9.02;4.65;;;-3.20;99.90;;;;;;4950882;28;20390;-76
2024/01/09 09:16:29;;;;;;;11.98;5.15;;;-3.10;99.90;;;;;;4943251;28;20081;-77
2024/01/09 09:18:55;;;;;;;13.10;5.22;;;-3.10;99.90;;;;;;4944199;28;20514;-76
2024/01/09 09:21:20;;;;;;;10.07;4.82;;;-3.10;99.90;;;;;;4949089;28;20031;-76
2024/01/09 09:23:47;;;;;;;8.65;4.53;;;-3.00;99.90;;;;;;4947015;29;20066;-76
2024/01/09 09:26:13;;;;;;;6.90;3.95;;;-3.00;99.90;;;;;;4948183;28;20031;-76
2024/01/09 09:28:40;;;;;;;11.00;4.60;;;-3.00;99.90;;;;;;4950919;28;20038;-76
2024/01/09 09:31:06;;;;;;;9.27;4.70;;;-3.00;99.90;;;;;;4949763;29;20030;-75
2024/01/09 09:33:33;;;;;;;8.65;4.50;;;-2.90;99.90;;;;;;4951267;28;20507;-75
2024/01/09 09:36:06;;;;;;;7.10;4.13;;;-2.90;99.90;;;;;;4953305;29;20147;-74
2024/01/09 09:38:33;;;;;;;8.77;4.90;;;-2.80;99.90;;;;;;4948943;28;20031;-75
2024/01/09 09:41:04;;;;;;;10.57;4.90;;;-2.70;99.90;;;;;;4952151;28;20031;-76
2024/01/09 09:43:34;;;;;;;6.72;3.63;;;-2.70;99.90;;;;;;4947709;28;20034;-76
2024/01/09 09:46:02;;;;;;;8.38;4.22;;;-2.70;99.90;;;;;;4950148;29;20062;-76
2024/01/09 09:48:29;;;;;;;8.95;4.43;;;-2.60;99.90;;;;;;4942910;28;20427;-75
2024/01/09 09:50:55;;;;;;;8.55;4.65;;;-2.60;99.90;;;;;;4934350;29;20027;-76
2024/01/09 09:53:24;;;;;;;8.32;4.45;;;-2.50;99.90;;;;;;5016548;28;20387;-76
2024/01/09 09:55:51;;;;;;;8.02;4.47;;;-2.50;99.90;;;;;;5014905;28;20042;-75
2024/01/09 09:58:17;;;;;;;7.68;4.07;;;-2.40;99.90;;;;;;4948697;28;20158;-76
2024/01/09 10:00:44;;;;;;;13.55;4.70;;;-2.40;99.90;;;;;;4943868;28;20102;-75
2024/01/09 10:03:11;;;;;;;9.10;4.55;;;-2.40;99.90;;;;;;4949416;28;20035;-76
2024/01/09 10:05:40;;;;;;;8.35;4.50;;;-2.30;99.90;;;;;;4940121;28;20114;-76
2024/01/09 10:08:12;;;;;;;7.68;3.85;;;-2.30;99.90;;;;;;5033647;28;20031;-76
2024/01/09 10:10:38;;;;;;;7.20;3.78;;;-2.20;99.90;;;;;;4945711;28;20030;-76
2024/01/09 10:13:04;;;;;;;8.73;4.28;;;-2.20;99.90;;;;;;4949540;28;20032;-76
2024/01/09 10:15:29;;;;;;;8.80;4.55;;;-2.10;99.90;;;;;;5010165;28;20031;-76
2024/01/09 10:17:59;;;;;;;7.72;3.97;;;-2.10;99.90;;;;;;4949750;28;20070;-76
2024/01/09 10:20:28;;;;;;;10.18;4.47;;;-2.00;99.90;;;;;;4967165;28;20115;-76
2024/01/09 10:22:55;;;;;;;9.07;4.50;;;-2.00;99.90;;;;;;5031820;28;20032;-77
2024/01/09 10:25:21;;;;;;;8.70;4.50;;;-2.00;99.90;;;;;;4950096;29;20093;-76
2024/01/09 10:27:46;;;;;;;7.82;4.18;;;-2.00;99.90;;;;;;4949702;28;20031;-76
2024/01/09 10:30:12;;;;;;;7.47;3.95;;;-1.90;99.90;;;;;;4947603;28;20038;-76
2024/01/09 10:32:39;;;;;;;7.53;4.07;;;-1.90;99.90;;;;;;4944009;28;20024;-76
2024/01/09 10:35:07;;;;;;;9.00;4.60;;;-1.90;99.90;;;;;;4944485;28;20030;-77
2024/01/09 10:37:36;;;;;;;8.77;4.40;;;-1.80;99.90;;;;;;4947232;28;20028;-76
2024/01/09 10:40:04;;;;;;;8.40;4.05;;;-1.80;99.90;;;;;;4948215;28;20032;-76
2024/01/09 10:42:30;;;;;;;9.63;4.03;;;-1.70;99.90;;;;;;4944326;28;20024;-76
2024/01/09 10:44:59;;;;;;;8.40;4.07;;;-1.70;99.90;;;;;;4946124;28;20110;-76
2024/01/09 10:47:27;;;;;;;10.80;4.95;;;-1.70;99.90;;;;;;4946991;28;20073;-76
2024/01/09 10:49:54;;;;;;;8.23;4.30;;;-1.60;99.90;;;;;;4947342;28;20458;-76
2024/01/09 10:52:20;;;;;;;6.85;3.90;;;-1.60;99.90;;;;;;4945706;28;20670;-76
2024/01/09 10:54:46;;;;;;;8.30;4.13;;;-1.50;99.90;;;;;;4955788;28;20023;-76
2024/01/09 10:57:14;;;;;;;8.63;3.72;;;-1.40;99.90;;;;;;4949790;28;20085;-76
2024/01/09 10:59:41;;;;;;;8.75;4.05;;;-1.40;99.90;;;;;;4948131;28;20039;-76
2024/01/09 11:02:16;;;;;;;6.78;3.85;;;-1.30;99.90;;;;;;4937428;28;20028;-76
2024/01/09 11:04:45;;;;;;;8.23;3.95;;;-1.30;99.90;;;;;;4945616;28;20031;-76
2024/01/09 11:07:14;;;;;;;7.05;3.50;;;-1.30;99.90;;;;;;4944069;28;20067;-77
2024/01/09 11:09:42;;;;;;;7.80;4.10;;;-1.20;99.90;;;;;;4953952;28;20036;-76
2024/01/09 11:12:13;;;;;;;5.05;3.53;;;-1.20;99.90;;;;;;4947967;28;20024;-76
2024/01/09 11:14:40;;;;;;;6.75;3.63;;;-1.10;99.90;;;;;;4946729;28;20384;-76
2024/01/09 11:17:08;;;;;;;9.43;3.70;;;-1.10;99.90;;;;;;4938576;28;20100;-76
2024/01/09 11:19:34;;;;;;;6.25;3.88;;;-1.00;99.90;;;;;;4948670;28;20422;-76
2024/01/09 11:22:18;;;;;;;6.78;3.55;;;-1.00;99.90;;;;;;4946651;28;20380;-76
2024/01/09 11:24:55;;;;;;;7.32;3.35;;;-1.00;99.90;;;;;;4941459;28;20046;-76
2024/01/09 11:27:21;;;;;;;5.95;3.33;;;-0.90;99.90;;;;;;4935226;28;20352;-76
2024/01/09 11:29:51;;;;;;;6.88;3.53;;;-0.90;99.90;;;;;;4939856;29;20119;-76
2024/01/09 11:32:17;;;;;;;5.38;3.08;;;-0.80;99.90;;;;;;4948404;28;20023;-76
2024/01/09 11:34:47;;;;;;;7.20;3.38;;;-0.70;99.90;;;;;;4946575;29;20110;-76
2024/01/09 11:37:20;;;;;;;5.22;3.17;;;-0.70;99.90;;;;;;4947407;28;20019;-76
2024/01/09 11:39:46;;;;;;;5.95;3.60;;;-0.60;99.90;;;;;;4942650;28;20077;-76
2024/01/09 11:42:12;;;;;;;5.65;3.30;;;-0.60;99.90;;;;;;4948345;28;20456;-76
2024/01/09 11:44:38;;;;;;;4.93;3.10;;;-0.50;99.90;;;;;;4941841;28;20475;-76
2024/01/09 11:47:04;;;;;;;6.18;3.28;;;-0.50;99.90;;;;;;4953935;28;20093;-77
2024/01/09 11:49:29;;;;;;;7.13;3.70;;;-0.40;99.90;;;;;;4943068;28;20043;-77
2024/01/09 11:51:55;;;;;;;9.05;3.75;;;-0.40;99.90;;;;;;4948461;28;20023;-77
2024/01/09 11:54:21;;;;;;;5.25;3.30;;;-0.30;99.90;;;;;;4949000;29;20091;-77
2024/01/09 11:56:49;;;;;;;7.38;3.30;;;-0.20;99.90;;;;;;4943732;28;20035;-76
2024/01/09 11:59:18;;;;;;;6.95;3.03;;;-0.20;99.90;;;;;;4949540;28;20015;-77
2024/01/09 12:01:45;;;;;;;7.65;3.55;;;-0.20;99.90;;;;;;4946197;28;20070;-74
2024/01/09 12:04:11;;;;;;;5.10;3.13;;;-0.20;99.90;;;;;;4948824;28;20037;-76
2024/01/09 12:06:36;;;;;;;4.28;3.10;;;-0.10;99.90;;;;;;5029321;28;20023;-75
2024/01/09 12:09:02;;;;;;;7.20;3.58;;;-0.10;99.90;;;;;;4949342;28;20023;-75
2024/01/09 12:11:28;;;;;;;4.75;3.13;;;0.00;99.90;;;;;;4951424;28;20073;-75
2024/01/09 12:13:59;;;;;;;5.97;3.17;;;0.00;99.90;;;;;;4947289;28;20376;-75
2024/01/09 12:16:26;;;;;;;7.22;3.65;;;0.00;99.90;;;;;;4946828;28;20062;-75
2024/01/09 12:18:56;;;;;;;5.05;3.15;;;0.10;99.90;;;;;;4947751;29;20047;-75
2024/01/09 12:21:26;;;;;;;8.52;3.53;;;0.10;99.90;;;;;;4947481;28;20079;-75
2024/01/09 12:23:55;;;;;;;6.15;3.38;;;0.20;99.90;;;;;;4941129;28;20024;-75
2024/01/09 12:26:23;;;;;;;6.63;3.67;;;0.20;99.90;;;;;;4944620;28;20410;-75
2024/01/09 12:28:50;;;;;;;6.35;3.20;;;0.20;99.90;;;;;;4941080;28;20023;-75
2024/01/09 12:31:17;;;;;;;5.85;3.40;;;0.30;99.90;;;;;;4941738;28;20122;-76
2024/01/09 12:33:44;;;;;;;5.25;3.03;;;0.20;99.90;;;;;;4949002;28;20364;-75
2024/01/09 12:36:09;;;;;;;8.30;3.30;;;0.30;99.90;;;;;;4945949;29;20528;-75
2024/01/09 12:38:35;;;;;;;5.35;3.13;;;0.30;99.90;;;;;;4946622;28;20098;-75